Time;durP1;ratioP1;P1;durP2;ratioP2;P2;SDS_P1;SDS_P2;PMS_P1;PMS_P2;Temp;Humidity;BMP_temperature;BMP_pressure;BME280_temperature;BME280_humidity;BME280_pressure;Samples;Min_cycle;Max_cycle;Signal;HPM_P1;HPM_P2
2021/06/22 00:01:03;;;;;;;14.70;9.88;;;;;;;;;;1906034;67;20080;-73
2021/06/22 00:03:29;;;;;;;14.55;9.00;;;;;;;;;;1903298;67;20087;-75
2021/06/22 00:05:55;;;;;;;19.30;10.10;;;;;;;;;;1906342;67;20155;-76
2021/06/22 00:08:20;;;;;;;19.27;9.38;;;;;;;;;;1902884;67;20225;-76
2021/06/22 00:10:46;;;;;;;19.08;9.95;;;;;;;;;;1906320;67;20087;-76
2021/06/22 00:13:12;;;;;;;16.38;9.50;;;;;;;;;;1903579;67;20437;-75
2021/06/22 00:15:37;;;;;;;14.38;9.50;;;;;;;;;;1902860;67;20095;-76
2021/06/22 00:18:03;;;;;;;15.35;9.80;;;;;;;;;;1902955;67;20581;-76
2021/06/22 00:20:28;;;;;;;15.70;9.65;;;;;;;;;;1903675;67;20089;-75
2021/06/22 00:22:55;;;;;;;18.20;9.82;;;;;;;;;;1899456;67;20494;-75
2021/06/22 00:25:21;;;;;;;13.48;8.88;;;;;;;;;;1897118;67;20161;-74
2021/06/22 00:27:49;;;;;;;18.58;9.95;;;;;;;;;;1896185;67;20585;-75
2021/06/22 00:30:15;;;;;;;24.08;10.40;;;;;;;;;;1898595;67;20093;-75
2021/06/22 00:32:43;;;;;;;17.95;9.70;;;;;;;;;;1893900;67;20081;-75
2021/06/22 00:35:09;;;;;;;15.05;9.57;;;;;;;;;;1896310;67;20074;-75
2021/06/22 00:37:35;;;;;;;16.30;9.82;;;;;;;;;;1894316;68;20097;-74
2021/06/22 00:40:01;;;;;;;17.75;9.10;;;;;;;;;;1896910;67;20582;-75
2021/06/22 00:42:26;;;;;;;14.50;9.15;;;;;;;;;;1891878;68;20151;-75
2021/06/22 00:44:54;;;;;;;14.13;8.63;;;;;;;;;;1896227;67;20088;-75
2021/06/22 00:47:21;;;;;;;17.45;10.10;;;;;;;;;;1894782;67;20149;-75
2021/06/22 00:49:48;;;;;;;14.68;9.07;;;;;;;;;;1896535;75;20097;-74
2021/06/22 00:52:15;;;;;;;23.80;9.77;;;;;;;;;;1894240;67;20095;-74
2021/06/22 00:54:41;;;;;;;22.88;9.77;;;;;;;;;;1894040;67;20081;-73
2021/06/22 00:57:08;;;;;;;17.88;8.85;;;;;;;;;;1896525;67;20095;-75
2021/06/22 00:59:33;;;;;;;15.57;9.70;;;;;;;;;;1894546;67;20097;-75
2021/06/22 01:02:01;;;;;;;17.70;9.32;;;;;;;;;;1897951;67;20150;-75
2021/06/22 01:04:28;;;;;;;14.55;9.32;;;;;;;;;;1904116;56;20088;-75
2021/06/22 01:06:55;;;;;;;20.98;9.43;;;;;;;;;;1902907;67;20088;-75
2021/06/22 01:09:20;;;;;;;15.68;8.95;;;;;;;;;;1906246;67;20091;-76
2021/06/22 01:11:49;;;;;;;15.82;9.55;;;;;;;;;;1898248;67;20100;-75
2021/06/22 01:17:37;;;;;;;18.60;9.75;;;;;;;;;;1902985;67;20099;-75
2021/06/22 01:20:03;;;;;;;15.95;9.82;;;;;;;;;;1895878;67;20094;-74
2021/06/22 01:22:29;;;;;;;15.60;9.73;;;;;;;;;;1894143;67;20086;-74
2021/06/22 01:24:57;;;;;;;15.55;9.05;;;;;;;;;;1891331;68;20168;-74
2021/06/22 01:27:22;;;;;;;17.02;9.15;;;;;;;;;;1890879;68;20421;-74
2021/06/22 01:29:48;;;;;;;14.68;9.02;;;;;;;;;;1890438;68;20086;-74
2021/06/22 01:32:13;;;;;;;17.75;9.38;;;;;;;;;;1887809;68;20195;-74
2021/06/22 01:34:40;;;;;;;17.58;8.98;;;;;;;;;;1891518;68;20098;-74
2021/06/22 01:37:08;;;;;;;14.68;9.55;;;;;;;;;;1890633;68;20083;-74
2021/06/22 01:39:33;;;;;;;15.55;9.18;;;;;;;;;;1888826;68;20164;-75
2021/06/22 01:41:59;;;;;;;18.10;10.00;;;;;;;;;;1890741;68;20528;-74
2021/06/22 01:44:28;;;;;;;19.50;10.00;;;;;;;;;;1891937;68;20105;-74
2021/06/22 01:46:54;;;;;;;22.05;10.25;;;;;;;;;;1889293;67;20177;-74
2021/06/22 01:49:20;;;;;;;18.42;10.52;;;;;;;;;;1891550;68;20124;-74
2021/06/22 01:51:46;;;;;;;20.20;10.30;;;;;;;;;;1890489;68;20629;-74
2021/06/22 01:54:11;;;;;;;19.45;9.80;;;;;;;;;;1894073;67;20273;-73
2021/06/22 01:56:38;;;;;;;16.20;9.63;;;;;;;;;;1898328;67;20088;-74
2021/06/22 01:59:04;;;;;;;17.15;9.35;;;;;;;;;;1903142;67;20158;-74
2021/06/22 02:01:31;;;;;;;18.25;9.07;;;;;;;;;;1903014;67;20096;-75
2021/06/22 02:03:56;;;;;;;19.08;9.55;;;;;;;;;;1902897;67;20636;-75
2021/06/22 02:06:22;;;;;;;16.20;9.10;;;;;;;;;;1902894;67;20140;-74
2021/06/22 02:08:48;;;;;;;16.25;9.65;;;;;;;;;;1903430;67;20224;-74
2021/06/22 02:11:13;;;;;;;20.48;9.32;;;;;;;;;;1903558;67;20107;-75
2021/06/22 02:13:39;;;;;;;15.88;9.15;;;;;;;;;;1900620;67;21116;-75
2021/06/22 02:16:04;;;;;;;18.92;9.07;;;;;;;;;;1902680;67;20097;-74
2021/06/22 02:18:30;;;;;;;14.93;9.10;;;;;;;;;;1905446;67;20524;-74
2021/06/22 02:20:56;;;;;;;15.38;9.52;;;;;;;;;;1901293;67;20139;-74
2021/06/22 02:23:21;;;;;;;17.00;9.38;;;;;;;;;;1900695;67;20081;-75
2021/06/22 02:25:47;;;;;;;16.98;9.68;;;;;;;;;;1904474;67;20095;-74
2021/06/22 02:28:19;;;;;;;15.02;9.23;;;;;;;;;;1900685;67;20085;-74
2021/06/22 02:30:46;;;;;;;21.75;9.10;;;;;;;;;;1902937;67;20096;-74
2021/06/22 02:33:12;;;;;;;18.33;9.45;;;;;;;;;;1900863;67;20081;-74
2021/06/22 02:35:38;;;;;;;17.35;9.98;;;;;;;;;;1903096;67;20080;-74
2021/06/22 02:38:04;;;;;;;16.35;9.07;;;;;;;;;;1900758;67;20096;-74
2021/06/22 02:40:29;;;;;;;18.02;8.75;;;;;;;;;;1903755;67;20092;-75
2021/06/22 02:42:55;;;;;;;18.00;9.82;;;;;;;;;;1900259;67;20077;-75
2021/06/22 02:45:21;;;;;;;16.77;9.13;;;;;;;;;;1903418;67;20093;-75
2021/06/22 02:47:47;;;;;;;16.80;8.93;;;;;;;;;;1900088;67;20099;-73
2021/06/22 02:50:14;;;;;;;15.00;9.52;;;;;;;;;;1903815;67;20089;-75
2021/06/22 02:52:40;;;;;;;17.10;9.48;;;;;;;;;;1903686;67;20141;-72
2021/06/22 02:55:07;;;;;;;14.60;8.93;;;;;;;;;;1903361;67;20148;-74
2021/06/22 02:57:33;;;;;;;13.82;8.82;;;;;;;;;;1903899;67;20088;-74
2021/06/22 02:59:58;;;;;;;16.98;9.30;;;;;;;;;;1901071;67;21042;-74
2021/06/22 03:02:24;;;;;;;16.20;9.48;;;;;;;;;;1895310;67;20096;-74
2021/06/22 03:04:49;;;;;;;17.70;9.88;;;;;;;;;;1895677;67;20097;-74
2021/06/22 03:07:15;;;;;;;15.88;8.75;;;;;;;;;;1895271;67;20109;-74
2021/06/22 03:09:42;;;;;;;21.73;10.05;;;;;;;;;;1897209;67;20100;-74
2021/06/22 03:12:08;;;;;;;16.50;8.90;;;;;;;;;;1891539;68;20123;-74
2021/06/22 03:14:34;;;;;;;18.83;9.50;;;;;;;;;;1897861;67;20148;-73
2021/06/22 03:16:59;;;;;;;16.33;9.10;;;;;;;;;;1894082;67;20094;-75
2021/06/22 03:19:25;;;;;;;18.33;9.55;;;;;;;;;;1895801;67;20142;-75
2021/06/22 03:21:50;;;;;;;19.38;9.38;;;;;;;;;;1899108;67;20116;-75
2021/06/22 03:24:19;;;;;;;15.98;9.02;;;;;;;;;;1899374;67;20093;-75
2021/06/22 03:26:46;;;;;;;15.20;9.02;;;;;;;;;;1899295;67;20100;-74
2021/06/22 03:29:12;;;;;;;15.57;9.18;;;;;;;;;;1895102;68;20941;-75
2021/06/22 03:31:37;;;;;;;14.48;8.95;;;;;;;;;;1899186;67;20240;-75
2021/06/22 03:34:04;;;;;;;18.20;9.23;;;;;;;;;;1904061;67;20096;-75
2021/06/22 03:36:30;;;;;;;17.00;9.32;;;;;;;;;;1905056;67;20139;-74
2021/06/22 03:38:55;;;;;;;19.38;8.98;;;;;;;;;;1905117;67;20188;-74
2021/06/22 03:41:21;;;;;;;18.77;9.57;;;;;;;;;;1905460;67;20084;-75
2021/06/22 03:43:46;;;;;;;15.77;8.68;;;;;;;;;;1905744;67;20139;-74
2021/06/22 03:46:16;;;;;;;18.90;9.27;;;;;;;;;;1903303;67;20092;-75
2021/06/22 03:48:42;;;;;;;16.83;8.77;;;;;;;;;;1902902;67;20161;-75
2021/06/22 03:51:07;;;;;;;14.98;8.98;;;;;;;;;;1905030;67;20081;-75
2021/06/22 03:53:33;;;;;;;18.60;8.90;;;;;;;;;;1905003;67;20110;-75
2021/06/22 03:55:58;;;;;;;16.55;8.93;;;;;;;;;;1905088;67;20088;-74
2021/06/22 03:58:24;;;;;;;18.27;8.90;;;;;;;;;;1895942;67;20137;-74
2021/06/22 04:00:50;;;;;;;14.93;9.10;;;;;;;;;;1897062;67;20177;-74
2021/06/22 04:03:16;;;;;;;19.08;9.02;;;;;;;;;;1896675;67;20509;-75
2021/06/22 04:05:41;;;;;;;20.50;9.52;;;;;;;;;;1893020;68;20082;-74
2021/06/22 04:08:07;;;;;;;16.00;9.93;;;;;;;;;;1895505;67;20428;-74
2021/06/22 04:10:33;;;;;;;17.25;8.80;;;;;;;;;;1890681;67;20150;-74
2021/06/22 04:12:59;;;;;;;15.65;9.18;;;;;;;;;;1890563;67;20223;-74
2021/06/22 04:15:25;;;;;;;15.70;8.38;;;;;;;;;;1888409;68;20102;-73
2021/06/22 04:17:51;;;;;;;20.52;9.00;;;;;;;;;;1890003;68;20717;-74
2021/06/22 04:20:17;;;;;;;17.20;8.75;;;;;;;;;;1886744;68;20101;-74
2021/06/22 04:22:44;;;;;;;16.67;9.38;;;;;;;;;;1889223;68;20101;-73
2021/06/22 04:25:10;;;;;;;17.92;9.45;;;;;;;;;;1889258;68;20612;-74
2021/06/22 04:27:35;;;;;;;19.95;8.75;;;;;;;;;;1888372;68;20513;-74
2021/06/22 04:30:05;;;;;;;20.85;8.95;;;;;;;;;;1890087;68;20100;-73
2021/06/22 04:32:31;;;;;;;15.88;8.45;;;;;;;;;;1889400;68;20073;-74
2021/06/22 04:34:56;;;;;;;17.98;9.20;;;;;;;;;;1890857;68;20174;-74
2021/06/22 04:37:22;;;;;;;15.85;8.98;;;;;;;;;;1893406;68;20108;-74
2021/06/22 04:39:47;;;;;;;18.98;8.30;;;;;;;;;;1893513;67;20094;-74
2021/06/22 04:42:14;;;;;;;18.98;9.07;;;;;;;;;;1895513;67;20101;-74
2021/06/22 04:44:39;;;;;;;14.15;8.15;;;;;;;;;;1896524;67;20085;-74
2021/06/22 04:47:05;;;;;;;13.70;8.23;;;;;;;;;;1900942;67;20197;-74
2021/06/22 04:49:30;;;;;;;19.23;8.57;;;;;;;;;;1895855;67;20103;-74
2021/06/22 04:51:55;;;;;;;16.67;8.73;;;;;;;;;;1899989;67;20091;-74
2021/06/22 04:54:23;;;;;;;15.32;8.80;;;;;;;;;;1902917;67;20095;-74
2021/06/22 04:56:49;;;;;;;18.80;9.27;;;;;;;;;;1902646;67;20644;-75
2021/06/22 04:59:14;;;;;;;16.95;8.57;;;;;;;;;;1902797;67;20476;-74
2021/06/22 05:01:40;;;;;;;17.65;8.32;;;;;;;;;;1901214;67;20104;-74
2021/06/22 05:04:06;;;;;;;17.27;8.35;;;;;;;;;;1900297;67;20088;-74
2021/06/22 05:06:32;;;;;;;14.38;8.40;;;;;;;;;;1902581;67;20164;-74
2021/06/22 05:08:57;;;;;;;20.27;9.60;;;;;;;;;;1902500;67;20860;-74
2021/06/22 05:11:23;;;;;;;13.85;8.57;;;;;;;;;;1902919;67;20096;-74
2021/06/22 05:13:48;;;;;;;21.00;8.63;;;;;;;;;;1902382;67;20103;-71
2021/06/22 05:16:15;;;;;;;18.50;8.88;;;;;;;;;;1903218;67;20088;-70
2021/06/22 05:18:40;;;;;;;16.25;9.05;;;;;;;;;;1902816;67;20142;-71
2021/06/22 05:21:06;;;;;;;19.52;8.80;;;;;;;;;;1903746;67;20104;-72
2021/06/22 05:23:32;;;;;;;14.60;8.40;;;;;;;;;;1902327;67;20107;-73
2021/06/22 05:25:57;;;;;;;12.32;7.97;;;;;;;;;;1905155;67;20149;-72
2021/06/22 05:28:23;;;;;;;14.57;8.68;;;;;;;;;;1902757;67;20104;-71
2021/06/22 05:30:48;;;;;;;15.93;8.32;;;;;;;;;;1905168;67;20094;-71
2021/06/22 05:33:14;;;;;;;16.27;8.82;;;;;;;;;;1901735;67;20136;-70
2021/06/22 05:35:39;;;;;;;15.23;9.02;;;;;;;;;;1904694;67;20156;-73
2021/06/22 05:38:05;;;;;;;18.05;9.02;;;;;;;;;;1905438;67;20104;-72
2021/06/22 05:40:30;;;;;;;17.10;8.80;;;;;;;;;;1901399;67;20144;-71
2021/06/22 05:42:56;;;;;;;15.70;9.15;;;;;;;;;;1901649;67;20541;-75
2021/06/22 05:45:21;;;;;;;16.58;8.52;;;;;;;;;;1899306;67;20089;-75
2021/06/22 05:47:47;;;;;;;19.77;9.38;;;;;;;;;;1898826;67;20231;-75
2021/06/22 05:50:12;;;;;;;18.13;9.00;;;;;;;;;;1901383;67;20087;-74
2021/06/22 05:52:39;;;;;;;21.55;9.30;;;;;;;;;;1898678;67;20165;-75
2021/06/22 05:55:16;;;;;;;16.60;8.52;;;;;;;;;;1898738;67;20140;-75
2021/06/22 05:57:53;;;;;;;14.57;8.18;;;;;;;;;;1901387;67;20419;-75
2021/06/22 06:00:24;;;;;;;15.00;8.40;;;;;;;;;;1899604;67;20438;-74
2021/06/22 06:02:50;;;;;;;14.90;9.07;;;;;;;;;;1899131;67;20146;-75
2021/06/22 06:05:17;;;;;;;15.65;8.77;;;;;;;;;;1901478;67;20111;-74
2021/06/22 06:07:43;;;;;;;26.88;9.60;;;;;;;;;;1901946;67;20081;-75
2021/06/22 06:10:10;;;;;;;19.73;8.23;;;;;;;;;;1901677;67;20097;-74
2021/06/22 06:12:35;;;;;;;20.20;9.15;;;;;;;;;;1905162;67;20099;-71
2021/06/22 06:15:01;;;;;;;14.00;8.50;;;;;;;;;;1905825;67;20096;-71
2021/06/22 06:17:26;;;;;;;15.32;8.98;;;;;;;;;;1905782;67;20096;-71
2021/06/22 06:19:52;;;;;;;18.55;8.55;;;;;;;;;;1902207;51;20094;-71
2021/06/22 06:22:19;;;;;;;15.43;9.02;;;;;;;;;;1902022;75;20095;-71
2021/06/22 06:24:45;;;;;;;17.58;10.65;;;;;;;;;;1903817;67;20452;-70
2021/06/22 06:29:56;;;;;;;12.80;8.50;;;;;;;;;;1905361;67;20144;-71
2021/06/22 06:32:22;;;;;;;18.92;9.02;;;;;;;;;;1904531;67;20087;-71
2021/06/22 06:34:47;;;;;;;23.15;9.48;;;;;;;;;;1905639;67;20554;-71
2021/06/22 06:37:13;;;;;;;16.38;9.30;;;;;;;;;;1904795;67;20103;-73
2021/06/22 06:39:39;;;;;;;18.13;9.00;;;;;;;;;;1901795;67;20102;-71
2021/06/22 06:42:05;;;;;;;16.80;9.30;;;;;;;;;;1902258;67;20702;-72
2021/06/22 06:44:30;;;;;;;23.10;9.75;;;;;;;;;;1898128;67;20093;-76
2021/06/22 06:46:56;;;;;;;17.27;8.18;;;;;;;;;;1898406;67;20523;-75
2021/06/22 06:49:22;;;;;;;22.38;8.85;;;;;;;;;;1897954;67;20694;-75
2021/06/22 06:51:47;;;;;;;14.93;9.52;;;;;;;;;;1896387;67;20085;-74
2021/06/22 06:54:13;;;;;;;20.95;9.40;;;;;;;;;;1895837;67;20646;-74
2021/06/22 06:56:38;;;;;;;18.77;9.45;;;;;;;;;;1896235;67;20533;-74
2021/06/22 06:59:03;;;;;;;19.15;9.57;;;;;;;;;;1896748;67;20102;-75
2021/06/22 07:01:29;;;;;;;17.60;9.50;;;;;;;;;;1895889;67;20081;-76
2021/06/22 07:03:55;;;;;;;17.20;8.10;;;;;;;;;;1896311;67;20786;-76
2021/06/22 07:06:21;;;;;;;19.35;9.02;;;;;;;;;;1895961;67;20688;-76
2021/06/22 07:08:46;;;;;;;19.20;9.52;;;;;;;;;;1895837;67;20096;-76
2021/06/22 07:11:12;;;;;;;18.52;9.25;;;;;;;;;;1896896;67;20093;-75
2021/06/22 07:13:38;;;;;;;13.50;8.52;;;;;;;;;;1896383;67;20207;-75
2021/06/22 07:16:04;;;;;;;21.05;8.75;;;;;;;;;;1897713;67;20562;-76
2021/06/22 07:18:31;;;;;;;19.02;8.82;;;;;;;;;;1900753;67;20736;-76
2021/06/22 07:20:57;;;;;;;16.52;9.00;;;;;;;;;;1901116;67;20103;-75
2021/06/22 07:23:23;;;;;;;14.65;8.32;;;;;;;;;;1900721;67;20106;-75
2021/06/22 07:25:49;;;;;;;17.27;7.85;;;;;;;;;;1896569;67;20097;-75
2021/06/22 07:28:15;;;;;;;17.63;7.95;;;;;;;;;;1895371;67;20103;-75
2021/06/22 07:30:41;;;;;;;14.98;8.80;;;;;;;;;;1900834;67;20093;-75
2021/06/22 07:33:07;;;;;;;16.33;8.75;;;;;;;;;;1898554;67;20095;-75
2021/06/22 07:35:33;;;;;;;17.92;8.77;;;;;;;;;;1898687;67;20112;-73
2021/06/22 07:38:00;;;;;;;16.85;8.77;;;;;;;;;;1899235;67;20085;-74
2021/06/22 07:40:25;;;;;;;17.10;9.13;;;;;;;;;;1899635;67;20092;-75
2021/06/22 07:42:52;;;;;;;20.92;8.68;;;;;;;;;;1898980;67;20587;-74
2021/06/22 07:45:19;;;;;;;17.30;8.88;;;;;;;;;;1898730;67;20104;-74
2021/06/22 07:47:45;;;;;;;16.02;8.63;;;;;;;;;;1894144;68;20086;-75
2021/06/22 07:50:12;;;;;;;17.42;9.38;;;;;;;;;;1891911;75;20090;-73
2021/06/22 07:52:37;;;;;;;18.33;8.57;;;;;;;;;;1893722;68;20566;-74
2021/06/22 07:55:04;;;;;;;20.00;9.15;;;;;;;;;;1895009;68;20081;-74
2021/06/22 07:57:30;;;;;;;19.85;9.38;;;;;;;;;;1893208;75;20085;-73
2021/06/22 07:59:55;;;;;;;16.08;8.00;;;;;;;;;;1896711;67;20100;-72
2021/06/22 08:02:20;;;;;;;16.83;8.82;;;;;;;;;;1896359;67;20089;-74
2021/06/22 08:04:46;;;;;;;17.10;8.90;;;;;;;;;;1896408;75;20658;-73
2021/06/22 08:07:11;;;;;;;17.23;8.73;;;;;;;;;;1894241;67;20156;-74
2021/06/22 08:09:37;;;;;;;19.85;8.45;;;;;;;;;;1896558;75;20085;-75
2021/06/22 08:12:03;;;;;;;15.77;8.77;;;;;;;;;;1895867;67;20085;-76
2021/06/22 08:14:29;;;;;;;18.35;9.27;;;;;;;;;;1896833;75;20152;-73
2021/06/22 08:16:54;;;;;;;17.45;9.20;;;;;;;;;;1896608;67;20089;-74
2021/06/22 08:19:19;;;;;;;12.25;8.85;;;;;;;;;;1897634;67;20097;-73
2021/06/22 08:21:45;;;;;;;25.70;9.07;;;;;;;;;;1898367;67;20101;-75
2021/06/22 08:24:11;;;;;;;18.63;9.63;;;;;;;;;;1899085;67;20095;-74
2021/06/22 08:26:36;;;;;;;16.38;8.15;;;;;;;;;;1896675;67;20460;-74
2021/06/22 08:29:03;;;;;;;20.52;9.43;;;;;;;;;;1896142;67;20097;-73
2021/06/22 08:31:29;;;;;;;19.52;8.25;;;;;;;;;;1895822;67;20173;-74
2021/06/22 08:33:54;;;;;;;11.63;8.30;;;;;;;;;;1894273;67;20105;-73
2021/06/22 08:36:20;;;;;;;16.67;8.63;;;;;;;;;;1896687;67;20097;-74
2021/06/22 08:38:45;;;;;;;17.80;8.27;;;;;;;;;;1893925;67;20148;-74
2021/06/22 08:41:13;;;;;;;26.42;8.75;;;;;;;;;;1893787;67;20089;-73
2021/06/22 08:43:39;;;;;;;18.35;9.30;;;;;;;;;;1888798;68;20568;-73
2021/06/22 08:46:18;;;;;;;16.77;8.68;;;;;;;;;;1889802;68;20191;-74
2021/06/22 08:48:45;;;;;;;13.45;8.25;;;;;;;;;;1890337;68;20114;-74
2021/06/22 08:51:13;;;;;;;14.93;7.97;;;;;;;;;;1895329;67;20081;-75
2021/06/22 08:53:39;;;;;;;10.05;7.60;;;;;;;;;;1896228;67;20104;-75
2021/06/22 08:56:05;;;;;;;13.15;7.95;;;;;;;;;;1895606;67;20086;-76
2021/06/22 08:58:30;;;;;;;13.38;7.43;;;;;;;;;;1895788;68;20096;-76
2021/06/22 09:00:56;;;;;;;12.73;7.28;;;;;;;;;;1896290;67;20098;-74
2021/06/22 09:03:26;;;;;;;11.65;7.03;;;;;;;;;;1893726;67;20089;-74
2021/06/22 09:05:54;;;;;;;10.48;6.90;;;;;;;;;;1894412;75;20085;-74
2021/06/22 09:08:29;;;;;;;10.40;7.25;;;;;;;;;;1894362;68;20118;-74
2021/06/22 09:11:07;;;;;;;15.57;7.63;;;;;;;;;;1894136;75;20098;-74
2021/06/22 09:13:34;;;;;;;12.65;6.82;;;;;;;;;;1893834;68;20092;-74
2021/06/22 09:16:00;;;;;;;18.77;6.97;;;;;;;;;;1891550;75;20651;-73
2021/06/22 09:18:35;;;;;;;14.27;6.70;;;;;;;;;;1891045;68;20538;-74
2021/06/22 09:21:13;;;;;;;12.88;6.78;;;;;;;;;;1893380;67;20093;-73
2021/06/22 09:23:40;;;;;;;9.65;6.25;;;;;;;;;;1893228;68;20182;-74
2021/06/22 09:26:15;;;;;;;11.25;6.40;;;;;;;;;;1895850;67;20585;-73
2021/06/22 09:28:41;;;;;;;8.98;6.10;;;;;;;;;;1896288;67;20085;-75
2021/06/22 09:31:13;;;;;;;10.48;6.15;;;;;;;;;;1898095;67;20107;-73
2021/06/22 09:33:41;;;;;;;10.02;5.68;;;;;;;;;;1899945;75;20499;-75
2021/06/22 09:36:17;;;;;;;11.20;6.15;;;;;;;;;;1902194;67;20084;-74
2021/06/22 09:39:02;;;;;;;13.27;6.90;;;;;;;;;;1903161;67;20084;-75
2021/06/22 09:41:46;;;;;;;12.82;5.65;;;;;;;;;;1906797;75;20136;-75
2021/06/22 09:44:17;;;;;;;11.70;6.55;;;;;;;;;;1906837;75;20084;-74
2021/06/22 09:46:42;;;;;;;11.63;6.43;;;;;;;;;;1906346;67;20148;-74
2021/06/22 09:49:30;;;;;;;11.73;6.10;;;;;;;;;;1907260;67;20095;-73
2021/06/22 09:52:11;;;;;;;10.05;6.03;;;;;;;;;;1906458;67;20092;-71
2021/06/22 09:54:42;;;;;;;9.20;5.68;;;;;;;;;;1905710;67;20524;-72
2021/06/22 09:57:16;;;;;;;12.17;5.20;;;;;;;;;;1898548;67;20203;-71
2021/06/22 10:00:10;;;;;;;10.50;5.78;;;;;;;;;;1899424;67;20085;-72
2021/06/22 10:02:50;;;;;;;23.33;6.43;;;;;;;;;;1898153;67;20090;-71
2021/06/22 10:05:16;;;;;;;9.13;5.22;;;;;;;;;;1898657;67;20129;-71
2021/06/22 10:07:42;;;;;;;8.13;5.63;;;;;;;;;;1898312;67;20145;-72
2021/06/22 10:10:08;;;;;;;8.07;5.28;;;;;;;;;;1896865;67;20301;-72
2021/06/22 10:12:38;;;;;;;11.38;5.80;;;;;;;;;;1898629;67;20101;-71
2021/06/22 10:15:05;;;;;;;9.90;5.75;;;;;;;;;;1898392;67;20152;-75
2021/06/22 10:17:31;;;;;;;10.90;5.38;;;;;;;;;;1899005;67;20895;-73
2021/06/22 10:19:59;;;;;;;8.55;5.75;;;;;;;;;;1898911;75;20156;-74
2021/06/22 10:22:31;;;;;;;8.85;5.78;;;;;;;;;;1899358;67;20085;-73
2021/06/22 10:24:59;;;;;;;8.38;5.47;;;;;;;;;;1896485;67;20092;-73
2021/06/22 10:27:25;;;;;;;6.85;5.53;;;;;;;;;;1898888;67;20102;-74
2021/06/22 10:29:53;;;;;;;12.73;5.72;;;;;;;;;;1905249;67;20081;-75
2021/06/22 10:32:21;;;;;;;8.95;5.65;;;;;;;;;;1900123;67;20080;-74
2021/06/22 10:34:59;;;;;;;8.73;5.05;;;;;;;;;;1905619;67;20099;-75
2021/06/22 10:37:31;;;;;;;8.68;5.68;;;;;;;;;;1905527;67;20096;-75
2021/06/22 10:40:11;;;;;;;10.65;5.38;;;;;;;;;;1905178;67;20151;-74
2021/06/22 10:43:05;;;;;;;8.48;5.40;;;;;;;;;;1905694;67;20099;-75
2021/06/22 10:45:30;;;;;;;8.18;5.22;;;;;;;;;;1902574;67;20103;-74
2021/06/22 10:47:59;;;;;;;12.00;5.68;;;;;;;;;;1905113;67;20084;-74
2021/06/22 10:50:25;;;;;;;13.27;5.55;;;;;;;;;;1905490;67;20108;-74
2021/06/22 10:52:53;;;;;;;10.27;5.50;;;;;;;;;;1905284;67;20095;-75
2021/06/22 10:55:44;;;;;;;10.75;5.68;;;;;;;;;;1905749;67;20084;-75
2021/06/22 10:58:15;;;;;;;10.07;5.03;;;;;;;;;;1901650;59;20574;-74
2021/06/22 11:00:43;;;;;;;9.18;4.95;;;;;;;;;;1901230;67;20421;-74
2021/06/22 11:03:10;;;;;;;8.65;5.80;;;;;;;;;;1896329;67;20098;-74
2021/06/22 11:05:38;;;;;;;9.32;5.35;;;;;;;;;;1896136;67;20239;-74
2021/06/22 11:08:12;;;;;;;15.13;5.30;;;;;;;;;;1894989;67;20311;-74
2021/06/22 11:10:39;;;;;;;8.35;5.22;;;;;;;;;;1896055;67;20085;-75
2021/06/22 11:13:06;;;;;;;8.65;5.30;;;;;;;;;;1890527;68;20110;-75
2021/06/22 11:15:49;;;;;;;7.90;4.93;;;;;;;;;;1888159;68;20094;-74
2021/06/22 11:18:17;;;;;;;9.70;6.03;;;;;;;;;;1884714;68;20141;-73
2021/06/22 11:21:05;;;;;;;9.85;4.95;;;;;;;;;;1882160;68;20553;-74
2021/06/22 11:23:56;;;;;;;8.23;5.20;;;;;;;;;;1885594;68;20526;-74
2021/06/22 11:26:25;;;;;;;8.48;4.85;;;;;;;;;;1885414;68;20090;-73
2021/06/22 11:28:58;;;;;;;9.02;5.13;;;;;;;;;;1882580;68;20112;-74
2021/06/22 11:31:52;;;;;;;9.00;4.50;;;;;;;;;;1885046;68;20321;-74
2021/06/22 11:34:23;;;;;;;12.10;5.07;;;;;;;;;;1886452;68;20147;-73
2021/06/22 11:36:53;;;;;;;7.13;4.85;;;;;;;;;;1886983;68;20134;-75
2021/06/22 11:39:29;;;;;;;6.60;4.05;;;;;;;;;;1884827;68;20095;-75
2021/06/22 11:42:12;;;;;;;5.50;3.83;;;;;;;;;;1885487;68;20113;-75
2021/06/22 11:44:45;;;;;;;6.22;4.43;;;;;;;;;;1887838;68;20154;-75
2021/06/22 11:47:30;;;;;;;9.15;4.30;;;;;;;;;;1892530;67;20659;-75
2021/06/22 11:49:58;;;;;;;7.60;4.60;;;;;;;;;;1893806;67;20157;-75
2021/06/22 11:52:37;;;;;;;10.90;4.82;;;;;;;;;;1894984;67;20073;-73
2021/06/22 11:55:16;;;;;;;8.15;4.72;;;;;;;;;;1896814;67;20182;-73
2021/06/22 11:57:46;;;;;;;7.60;4.90;;;;;;;;;;1896858;67;20107;-74
2021/06/22 12:00:17;;;;;;;6.38;4.15;;;;;;;;;;1897246;67;20098;-74
2021/06/22 12:02:49;;;;;;;9.67;4.90;;;;;;;;;;1895747;67;20108;-73
2021/06/22 12:05:17;;;;;;;11.73;4.28;;;;;;;;;;1895977;67;20097;-73
2021/06/22 12:07:50;;;;;;;6.72;4.18;;;;;;;;;;1895929;67;20089;-74
2021/06/22 12:10:17;;;;;;;6.00;4.32;;;;;;;;;;1893616;67;20096;-75
2021/06/22 12:12:47;;;;;;;18.30;4.30;;;;;;;;;;1897564;67;20085;-74
2021/06/22 12:15:14;;;;;;;7.53;4.13;;;;;;;;;;1895516;67;20712;-75
2021/06/22 12:17:39;;;;;;;4.57;3.80;;;;;;;;;;1895735;67;20672;-75
2021/06/22 12:20:27;;;;;;;5.32;3.90;;;;;;;;;;1893476;67;20100;-74
2021/06/22 12:23:04;;;;;;;6.22;4.20;;;;;;;;;;1895512;67;20210;-74
2021/06/22 12:25:37;;;;;;;5.22;3.70;;;;;;;;;;1896564;67;20141;-75
2021/06/22 12:28:03;;;;;;;7.45;3.40;;;;;;;;;;1893710;67;20440;-75
2021/06/22 12:30:38;;;;;;;5.10;3.13;;;;;;;;;;1894963;67;20100;-74
2021/06/22 12:33:23;;;;;;;6.50;3.28;;;;;;;;;;1894344;67;20089;-75
2021/06/22 12:35:51;;;;;;;5.30;3.58;;;;;;;;;;1895938;67;20156;-75
2021/06/22 12:38:19;;;;;;;5.95;3.45;;;;;;;;;;1896384;67;20097;-74
2021/06/22 12:40:48;;;;;;;5.80;3.60;;;;;;;;;;1897281;67;20135;-75
2021/06/22 12:43:16;;;;;;;9.27;3.60;;;;;;;;;;1899797;67;20096;-75
2021/06/22 12:45:43;;;;;;;6.50;3.67;;;;;;;;;;1899212;75;20100;-74
2021/06/22 12:48:09;;;;;;;6.60;3.47;;;;;;;;;;1898943;67;20595;-74
2021/06/22 12:50:37;;;;;;;9.88;4.50;;;;;;;;;;1899216;67;20104;-74
2021/06/22 12:53:03;;;;;;;8.75;4.82;;;;;;;;;;1896866;75;20091;-74
2021/06/22 12:55:36;;;;;;;7.18;4.93;;;;;;;;;;1899532;67;20096;-74
2021/06/22 12:58:03;;;;;;;8.40;4.90;;;;;;;;;;1898266;67;20151;-74
2021/06/22 13:00:43;;;;;;;8.38;4.32;;;;;;;;;;1904822;67;20084;-72
2021/06/22 13:03:18;;;;;;;5.85;4.50;;;;;;;;;;1905466;67;20084;-74
2021/06/22 13:05:51;;;;;;;8.30;4.95;;;;;;;;;;1904814;67;20091;-75
2021/06/22 13:08:18;;;;;;;7.82;4.65;;;;;;;;;;1906303;67;20080;-74
2021/06/22 13:10:54;;;;;;;9.02;4.80;;;;;;;;;;1902019;67;20844;-74
2021/06/22 13:13:30;;;;;;;8.18;4.60;;;;;;;;;;1904745;67;20080;-74
2021/06/22 13:16:17;;;;;;;9.82;4.97;;;;;;;;;;1904820;75;20143;-75
2021/06/22 13:19:08;;;;;;;8.85;5.10;;;;;;;;;;1905236;67;20511;-73
2021/06/22 13:21:48;;;;;;;5.95;4.32;;;;;;;;;;1905192;75;20084;-74
2021/06/22 13:24:40;;;;;;;9.77;4.78;;;;;;;;;;1904865;67;20134;-74
2021/06/22 13:27:15;;;;;;;;;;;;;;;;;;1905088;75;20149;-74
2021/06/22 13:29:55;;;;;;;7.28;4.22;;;;;;;;;;1904741;67;19985;-74
2021/06/22 13:32:46;;;;;;;7.00;4.25;;;;;;;;;;1904472;67;20088;-74
2021/06/22 13:35:36;;;;;;;5.97;4.50;;;;;;;;;;1904867;67;20115;-74
2021/06/22 13:38:29;;;;;;;8.63;5.13;;;;;;;;;;1893096;75;20162;-73
2021/06/22 13:41:05;;;;;;;9.30;4.93;;;;;;;;;;1901535;67;20098;-74
2021/06/22 13:43:42;;;;;;;9.60;4.90;;;;;;;;;;1905786;75;20091;-74
2021/06/22 13:46:09;;;;;;;5.70;4.90;;;;;;;;;;1905328;67;20103;-74
2021/06/22 13:48:37;;;;;;;7.97;4.82;;;;;;;;;;1906002;67;20091;-73
2021/06/22 13:51:05;;;;;;;9.77;4.78;;;;;;;;;;1905639;75;20490;-73
2021/06/22 13:53:38;;;;;;;9.15;4.82;;;;;;;;;;1905399;67;20080;-74
2021/06/22 13:56:31;;;;;;;12.48;5.07;;;;;;;;;;1905888;67;20379;-74
2021/06/22 13:58:57;;;;;;;12.40;5.40;;;;;;;;;;1906290;67;20098;-75
2021/06/22 14:01:22;;;;;;;11.38;4.80;;;;;;;;;;1904664;67;20139;-73
2021/06/22 14:03:48;;;;;;;14.60;5.22;;;;;;;;;;1902159;67;20100;-73
2021/06/22 14:06:14;;;;;;;12.00;5.43;;;;;;;;;;1904501;67;20593;-74
2021/06/22 14:08:40;;;;;;;10.10;5.07;;;;;;;;;;1905327;67;20148;-73
2021/06/22 14:11:06;;;;;;;11.80;5.22;;;;;;;;;;1902408;67;20148;-73
2021/06/22 14:13:31;;;;;;;9.20;4.95;;;;;;;;;;1903268;67;20100;-73
2021/06/22 14:15:59;;;;;;;14.52;5.32;;;;;;;;;;1905594;67;20095;-73
2021/06/22 14:18:25;;;;;;;11.35;4.80;;;;;;;;;;1905195;67;20095;-72
2021/06/22 14:20:55;;;;;;;12.85;5.05;;;;;;;;;;1902845;67;20123;-74
2021/06/22 14:23:20;;;;;;;8.38;4.85;;;;;;;;;;1905812;67;20084;-73
2021/06/22 14:25:47;;;;;;;10.30;5.10;;;;;;;;;;1906571;67;20102;-73
2021/06/22 14:28:17;;;;;;;11.05;4.65;;;;;;;;;;1907548;67;20090;-73
2021/06/22 14:30:47;;;;;;;11.40;5.10;;;;;;;;;;1905950;67;20094;-74
2021/06/22 14:33:13;;;;;;;14.57;5.38;;;;;;;;;;1905079;67;20601;-74
2021/06/22 14:35:39;;;;;;;8.38;4.85;;;;;;;;;;1903616;67;20084;-74
2021/06/22 14:38:04;;;;;;;10.82;5.30;;;;;;;;;;1903038;67;20107;-74
2021/06/22 14:40:30;;;;;;;12.20;5.10;;;;;;;;;;1906478;67;20100;-74
2021/06/22 14:42:57;;;;;;;10.52;5.47;;;;;;;;;;1903326;67;20144;-74
2021/06/22 14:45:26;;;;;;;12.32;5.63;;;;;;;;;;1902903;67;20088;-74
2021/06/22 14:47:52;;;;;;;10.07;5.38;;;;;;;;;;1905642;67;20088;-73